sensor_id;sensor_type;location;lat;lon;timestamp;P1;durP1;ratioP1;P2;durP2;ratioP2
45642;SDS011;31358;46.008;11.144;2023-06-05T00:01:32;4.75;;;2.88;;
45642;SDS011;31358;46.008;11.144;2023-06-05T00:03:59;4.68;;;2.85;;
45642;SDS011;31358;46.008;11.144;2023-06-05T00:06:25;7.68;;;3.40;;
45642;SDS011;31358;46.008;11.144;2023-06-05T00:08:50;5.35;;;3.40;;
45642;SDS011;31358;46.008;11.144;2023-06-05T00:11:16;8.02;;;3.47;;
45642;SDS011;31358;46.008;11.144;2023-06-05T00:13:42;5.53;;;3.08;;
45642;SDS011;31358;46.008;11.144;2023-06-05T00:16:07;4.32;;;2.80;;
45642;SDS011;31358;46.008;11.144;2023-06-05T00:18:33;4.90;;;3.22;;
45642;SDS011;31358;46.008;11.144;2023-06-05T00:20:58;6.68;;;3.45;;
45642;SDS011;31358;46.008;11.144;2023-06-05T00:23:24;4.57;;;3.08;;
45642;SDS011;31358;46.008;11.144;2023-06-05T00:25:50;4.95;;;2.80;;
45642;SDS011;31358;46.008;11.144;2023-06-05T00:28:16;10.93;;;4.15;;
45642;SDS011;31358;46.008;11.144;2023-06-05T00:30:41;7.85;;;3.00;;
45642;SDS011;31358;46.008;11.144;2023-06-05T00:33:07;5.65;;;2.88;;
45642;SDS011;31358;46.008;11.144;2023-06-05T00:35:32;5.28;;;2.90;;
45642;SDS011;31358;46.008;11.144;2023-06-05T00:37:58;6.05;;;3.30;;
45642;SDS011;31358;46.008;11.144;2023-06-05T00:40:24;4.38;;;2.75;;
45642;SDS011;31358;46.008;11.144;2023-06-05T00:42:49;5.32;;;2.92;;
45642;SDS011;31358;46.008;11.144;2023-06-05T00:45:15;5.70;;;3.47;;
45642;SDS011;31358;46.008;11.144;2023-06-05T00:47:41;5.75;;;3.25;;
45642;SDS011;31358;46.008;11.144;2023-06-05T00:50:07;11.90;;;4.65;;
45642;SDS011;31358;46.008;11.144;2023-06-05T00:52:33;8.50;;;4.07;;
45642;SDS011;31358;46.008;11.144;2023-06-05T00:54:59;6.25;;;4.18;;
45642;SDS011;31358;46.008;11.144;2023-06-05T00:57:26;10.23;;;3.78;;
45642;SDS011;31358;46.008;11.144;2023-06-05T00:59:53;5.57;;;3.55;;
45642;SDS011;31358;46.008;11.144;2023-06-05T01:02:19;6.90;;;4.05;;
45642;SDS011;31358;46.008;11.144;2023-06-05T01:04:47;5.63;;;3.50;;
45642;SDS011;31358;46.008;11.144;2023-06-05T01:07:13;7.85;;;3.40;;
45642;SDS011;31358;46.008;11.144;2023-06-05T01:09:41;4.75;;;2.85;;
45642;SDS011;31358;46.008;11.144;2023-06-05T01:14:48;4.60;;;2.53;;
45642;SDS011;31358;46.008;11.144;2023-06-05T01:17:14;6.00;;;3.30;;
45642;SDS011;31358;46.008;11.144;2023-06-05T01:19:45;5.93;;;3.10;;
45642;SDS011;31358;46.008;11.144;2023-06-05T01:22:11;6.05;;;3.22;;
45642;SDS011;31358;46.008;11.144;2023-06-05T01:24:41;5.97;;;2.90;;
45642;SDS011;31358;46.008;11.144;2023-06-05T01:27:13;6.53;;;2.80;;
45642;SDS011;31358;46.008;11.144;2023-06-05T01:32:28;4.05;;;2.80;;
45642;SDS011;31358;46.008;11.144;2023-06-05T01:35:18;7.40;;;2.50;;
45642;SDS011;31358;46.008;11.144;2023-06-05T01:37:46;5.40;;;2.70;;
45642;SDS011;31358;46.008;11.144;2023-06-05T01:40:14;4.88;;;2.63;;
45642;SDS011;31358;46.008;11.144;2023-06-05T01:42:48;4.70;;;2.75;;
45642;SDS011;31358;46.008;11.144;2023-06-05T01:45:17;6.20;;;2.70;;
45642;SDS011;31358;46.008;11.144;2023-06-05T01:47:43;5.03;;;2.55;;
45642;SDS011;31358;46.008;11.144;2023-06-05T01:50:13;4.07;;;2.10;;
45642;SDS011;31358;46.008;11.144;2023-06-05T01:52:41;4.43;;;2.55;;
45642;SDS011;31358;46.008;11.144;2023-06-05T01:55:13;4.93;;;2.45;;
45642;SDS011;31358;46.008;11.144;2023-06-05T01:57:43;3.65;;;2.17;;
45642;SDS011;31358;46.008;11.144;2023-06-05T02:00:09;6.13;;;2.75;;
45642;SDS011;31358;46.008;11.144;2023-06-05T02:02:40;5.22;;;2.50;;
45642;SDS011;31358;46.008;11.144;2023-06-05T02:05:16;5.68;;;2.65;;
45642;SDS011;31358;46.008;11.144;2023-06-05T02:07:45;4.40;;;2.42;;
45642;SDS011;31358;46.008;11.144;2023-06-05T02:10:14;6.40;;;2.70;;
45642;SDS011;31358;46.008;11.144;2023-06-05T02:12:40;5.22;;;2.90;;
45642;SDS011;31358;46.008;11.144;2023-06-05T02:15:09;4.90;;;2.75;;
45642;SDS011;31358;46.008;11.144;2023-06-05T02:17:38;7.40;;;3.70;;
45642;SDS011;31358;46.008;11.144;2023-06-05T02:20:04;7.30;;;3.80;;
45642;SDS011;31358;46.008;11.144;2023-06-05T02:22:30;4.55;;;2.80;;
45642;SDS011;31358;46.008;11.144;2023-06-05T02:24:56;6.22;;;3.50;;
45642;SDS011;31358;46.008;11.144;2023-06-05T02:27:22;6.60;;;3.13;;
45642;SDS011;31358;46.008;11.144;2023-06-05T02:29:49;6.03;;;2.90;;
45642;SDS011;31358;46.008;11.144;2023-06-05T02:32:15;5.10;;;3.53;;
45642;SDS011;31358;46.008;11.144;2023-06-05T02:34:41;4.28;;;2.50;;
45642;SDS011;31358;46.008;11.144;2023-06-05T02:37:07;6.95;;;2.95;;
45642;SDS011;31358;46.008;11.144;2023-06-05T02:39:33;5.30;;;2.92;;
45642;SDS011;31358;46.008;11.144;2023-06-05T02:41:59;5.35;;;2.95;;
45642;SDS011;31358;46.008;11.144;2023-06-05T02:44:24;7.82;;;3.85;;
45642;SDS011;31358;46.008;11.144;2023-06-05T02:46:51;6.20;;;3.60;;
45642;SDS011;31358;46.008;11.144;2023-06-05T02:49:16;6.10;;;3.60;;
45642;SDS011;31358;46.008;11.144;2023-06-05T02:51:42;5.40;;;3.47;;
45642;SDS011;31358;46.008;11.144;2023-06-05T02:54:08;5.70;;;3.78;;
45642;SDS011;31358;46.008;11.144;2023-06-05T02:56:33;6.18;;;3.83;;
45642;SDS011;31358;46.008;11.144;2023-06-05T02:58:59;8.30;;;3.85;;
45642;SDS011;31358;46.008;11.144;2023-06-05T03:01:27;8.70;;;3.67;;
45642;SDS011;31358;46.008;11.144;2023-06-05T03:04:00;5.10;;;3.20;;
45642;SDS011;31358;46.008;11.144;2023-06-05T03:06:27;5.05;;;2.92;;
45642;SDS011;31358;46.008;11.144;2023-06-05T03:08:58;4.70;;;2.65;;
45642;SDS011;31358;46.008;11.144;2023-06-05T03:11:24;4.38;;;2.22;;
45642;SDS011;31358;46.008;11.144;2023-06-05T03:13:51;6.90;;;2.30;;
45642;SDS011;31358;46.008;11.144;2023-06-05T03:16:17;4.60;;;2.55;;
45642;SDS011;31358;46.008;11.144;2023-06-05T03:18:43;5.78;;;3.08;;
45642;SDS011;31358;46.008;11.144;2023-06-05T03:21:10;4.80;;;2.28;;
45642;SDS011;31358;46.008;11.144;2023-06-05T03:23:36;5.65;;;2.20;;
45642;SDS011;31358;46.008;11.144;2023-06-05T03:26:02;6.45;;;4.45;;
45642;SDS011;31358;46.008;11.144;2023-06-05T03:28:28;7.10;;;4.22;;
45642;SDS011;31358;46.008;11.144;2023-06-05T03:30:58;7.53;;;3.28;;
45642;SDS011;31358;46.008;11.144;2023-06-05T03:33:24;3.55;;;2.22;;
45642;SDS011;31358;46.008;11.144;2023-06-05T03:35:50;4.65;;;2.15;;
45642;SDS011;31358;46.008;11.144;2023-06-05T03:38:17;4.05;;;2.28;;
45642;SDS011;31358;46.008;11.144;2023-06-05T03:40:43;5.88;;;2.90;;
45642;SDS011;31358;46.008;11.144;2023-06-05T03:43:09;3.78;;;2.33;;
45642;SDS011;31358;46.008;11.144;2023-06-05T03:45:35;3.63;;;2.33;;
45642;SDS011;31358;46.008;11.144;2023-06-05T03:48:02;3.17;;;1.90;;
45642;SDS011;31358;46.008;11.144;2023-06-05T03:50:28;6.53;;;2.83;;
45642;SDS011;31358;46.008;11.144;2023-06-05T03:52:56;3.55;;;2.17;;
45642;SDS011;31358;46.008;11.144;2023-06-05T03:55:33;4.40;;;2.22;;
45642;SDS011;31358;46.008;11.144;2023-06-05T03:58:13;5.20;;;2.20;;
45642;SDS011;31358;46.008;11.144;2023-06-05T04:00:44;3.78;;;2.08;;
45642;SDS011;31358;46.008;11.144;2023-06-05T04:03:11;3.55;;;2.13;;
45642;SDS011;31358;46.008;11.144;2023-06-05T04:05:37;4.07;;;1.77;;
45642;SDS011;31358;46.008;11.144;2023-06-05T04:08:04;3.70;;;1.98;;
45642;SDS011;31358;46.008;11.144;2023-06-05T04:10:30;3.25;;;1.75;;
45642;SDS011;31358;46.008;11.144;2023-06-05T04:12:56;4.13;;;2.10;;
45642;SDS011;31358;46.008;11.144;2023-06-05T04:15:25;3.97;;;1.70;;
45642;SDS011;31358;46.008;11.144;2023-06-05T04:17:51;6.55;;;2.10;;
45642;SDS011;31358;46.008;11.144;2023-06-05T04:20:17;3.80;;;2.05;;
45642;SDS011;31358;46.008;11.144;2023-06-05T04:22:44;4.65;;;2.15;;
45642;SDS011;31358;46.008;11.144;2023-06-05T04:25:10;5.88;;;2.67;;
45642;SDS011;31358;46.008;11.144;2023-06-05T04:27:41;4.20;;;2.47;;
45642;SDS011;31358;46.008;11.144;2023-06-05T04:30:09;5.63;;;2.67;;
45642;SDS011;31358;46.008;11.144;2023-06-05T04:32:36;5.28;;;2.35;;
45642;SDS011;31358;46.008;11.144;2023-06-05T04:37:29;3.53;;;2.15;;
45642;SDS011;31358;46.008;11.144;2023-06-05T04:39:55;4.25;;;2.10;;
45642;SDS011;31358;46.008;11.144;2023-06-05T04:42:21;4.03;;;2.03;;
45642;SDS011;31358;46.008;11.144;2023-06-05T04:44:56;7.88;;;2.63;;
45642;SDS011;31358;46.008;11.144;2023-06-05T04:47:22;3.92;;;2.20;;
45642;SDS011;31358;46.008;11.144;2023-06-05T04:49:48;5.15;;;1.95;;
45642;SDS011;31358;46.008;11.144;2023-06-05T04:52:17;3.90;;;1.55;;
45642;SDS011;31358;46.008;11.144;2023-06-05T04:54:42;10.77;;;2.08;;
45642;SDS011;31358;46.008;11.144;2023-06-05T04:57:09;5.00;;;2.00;;
45642;SDS011;31358;46.008;11.144;2023-06-05T04:59:35;3.53;;;1.85;;
45642;SDS011;31358;46.008;11.144;2023-06-05T05:02:02;2.90;;;1.40;;
45642;SDS011;31358;46.008;11.144;2023-06-05T05:04:28;4.45;;;2.38;;
45642;SDS011;31358;46.008;11.144;2023-06-05T05:06:54;4.65;;;2.25;;
45642;SDS011;31358;46.008;11.144;2023-06-05T05:09:20;3.40;;;1.88;;
45642;SDS011;31358;46.008;11.144;2023-06-05T05:11:45;4.28;;;2.45;;
45642;SDS011;31358;46.008;11.144;2023-06-05T05:14:11;6.22;;;3.08;;
45642;SDS011;31358;46.008;11.144;2023-06-05T05:16:37;5.38;;;3.00;;
45642;SDS011;31358;46.008;11.144;2023-06-05T05:19:02;5.78;;;2.72;;
45642;SDS011;31358;46.008;11.144;2023-06-05T05:21:28;16.10;;;3.88;;
45642;SDS011;31358;46.008;11.144;2023-06-05T05:23:54;5.90;;;3.00;;
45642;SDS011;31358;46.008;11.144;2023-06-05T05:26:19;5.28;;;2.80;;
45642;SDS011;31358;46.008;11.144;2023-06-05T05:28:45;4.72;;;2.90;;
45642;SDS011;31358;46.008;11.144;2023-06-05T05:31:10;5.03;;;3.22;;
45642;SDS011;31358;46.008;11.144;2023-06-05T05:33:36;4.00;;;2.22;;
45642;SDS011;31358;46.008;11.144;2023-06-05T05:36:02;4.22;;;2.25;;
45642;SDS011;31358;46.008;11.144;2023-06-05T05:38:28;5.15;;;2.20;;
45642;SDS011;31358;46.008;11.144;2023-06-05T05:40:54;4.93;;;2.60;;
45642;SDS011;31358;46.008;11.144;2023-06-05T05:43:20;2.95;;;1.73;;
45642;SDS011;31358;46.008;11.144;2023-06-05T05:45:45;6.00;;;2.10;;
45642;SDS011;31358;46.008;11.144;2023-06-05T05:48:11;4.85;;;2.70;;
45642;SDS011;31358;46.008;11.144;2023-06-05T05:50:36;4.38;;;2.28;;
45642;SDS011;31358;46.008;11.144;2023-06-05T05:53:03;4.45;;;2.17;;
45642;SDS011;31358;46.008;11.144;2023-06-05T05:55:28;5.72;;;2.25;;
45642;SDS011;31358;46.008;11.144;2023-06-05T05:57:54;9.18;;;2.10;;
45642;SDS011;31358;46.008;11.144;2023-06-05T06:00:20;5.10;;;2.85;;
45642;SDS011;31358;46.008;11.144;2023-06-05T06:02:46;5.07;;;2.38;;
45642;SDS011;31358;46.008;11.144;2023-06-05T06:05:12;3.83;;;2.17;;
45642;SDS011;31358;46.008;11.144;2023-06-05T06:07:38;4.00;;;2.08;;
45642;SDS011;31358;46.008;11.144;2023-06-05T06:10:06;3.67;;;2.13;;
45642;SDS011;31358;46.008;11.144;2023-06-05T06:12:33;5.80;;;2.40;;
45642;SDS011;31358;46.008;11.144;2023-06-05T06:14:59;3.60;;;1.67;;
45642;SDS011;31358;46.008;11.144;2023-06-05T06:17:25;7.22;;;2.83;;
45642;SDS011;31358;46.008;11.144;2023-06-05T06:19:52;5.28;;;2.42;;
45642;SDS011;31358;46.008;11.144;2023-06-05T06:22:18;5.35;;;2.28;;
45642;SDS011;31358;46.008;11.144;2023-06-05T06:24:44;4.10;;;2.15;;
45642;SDS011;31358;46.008;11.144;2023-06-05T06:27:09;4.40;;;2.15;;
45642;SDS011;31358;46.008;11.144;2023-06-05T06:29:46;3.50;;;2.10;;
45642;SDS011;31358;46.008;11.144;2023-06-05T06:32:17;5.80;;;2.03;;
45642;SDS011;31358;46.008;11.144;2023-06-05T06:34:43;3.97;;;2.05;;
45642;SDS011;31358;46.008;11.144;2023-06-05T06:37:10;4.25;;;2.20;;
45642;SDS011;31358;46.008;11.144;2023-06-05T06:39:44;4.40;;;2.40;;
45642;SDS011;31358;46.008;11.144;2023-06-05T06:42:10;5.97;;;2.47;;
45642;SDS011;31358;46.008;11.144;2023-06-05T06:44:36;4.60;;;2.05;;
45642;SDS011;31358;46.008;11.144;2023-06-05T06:47:02;3.53;;;1.75;;
45642;SDS011;31358;46.008;11.144;2023-06-05T06:49:28;5.07;;;1.90;;
45642;SDS011;31358;46.008;11.144;2023-06-05T06:51:54;4.03;;;2.30;;
45642;SDS011;31358;46.008;11.144;2023-06-05T06:54:19;4.53;;;1.98;;
45642;SDS011;31358;46.008;11.144;2023-06-05T06:56:46;4.38;;;1.90;;
45642;SDS011;31358;46.008;11.144;2023-06-05T06:59:12;5.93;;;2.55;;
45642;SDS011;31358;46.008;11.144;2023-06-05T07:01:43;5.40;;;2.75;;
45642;SDS011;31358;46.008;11.144;2023-06-05T07:04:13;4.50;;;2.40;;
45642;SDS011;31358;46.008;11.144;2023-06-05T07:06:45;7.18;;;2.47;;
45642;SDS011;31358;46.008;11.144;2023-06-05T07:09:11;5.18;;;3.15;;
45642;SDS011;31358;46.008;11.144;2023-06-05T07:11:37;9.00;;;3.17;;
45642;SDS011;31358;46.008;11.144;2023-06-05T07:14:03;4.40;;;2.20;;
45642;SDS011;31358;46.008;11.144;2023-06-05T07:16:29;6.93;;;2.88;;
45642;SDS011;31358;46.008;11.144;2023-06-05T07:18:55;5.32;;;3.85;;
45642;SDS011;31358;46.008;11.144;2023-06-05T07:21:21;4.63;;;3.05;;
45642;SDS011;31358;46.008;11.144;2023-06-05T07:23:47;4.80;;;2.95;;
45642;SDS011;31358;46.008;11.144;2023-06-05T07:26:17;7.55;;;4.40;;
45642;SDS011;31358;46.008;11.144;2023-06-05T07:28:43;8.43;;;5.50;;
45642;SDS011;31358;46.008;11.144;2023-06-05T07:31:08;8.13;;;6.25;;
45642;SDS011;31358;46.008;11.144;2023-06-05T07:33:35;12.52;;;7.13;;
45642;SDS011;31358;46.008;11.144;2023-06-05T07:36:01;10.25;;;7.75;;
45642;SDS011;31358;46.008;11.144;2023-06-05T07:38:26;8.45;;;7.10;;
45642;SDS011;31358;46.008;11.144;2023-06-05T07:40:54;9.82;;;6.47;;
45642;SDS011;31358;46.008;11.144;2023-06-05T07:43:23;7.70;;;5.05;;
45642;SDS011;31358;46.008;11.144;2023-06-05T07:45:49;9.57;;;7.32;;
45642;SDS011;31358;46.008;11.144;2023-06-05T07:48:15;12.23;;;8.18;;
45642;SDS011;31358;46.008;11.144;2023-06-05T07:50:40;10.88;;;8.50;;
45642;SDS011;31358;46.008;11.144;2023-06-05T07:53:06;9.93;;;8.10;;
45642;SDS011;31358;46.008;11.144;2023-06-05T07:55:32;10.85;;;7.50;;
45642;SDS011;31358;46.008;11.144;2023-06-05T07:57:57;11.32;;;7.68;;
45642;SDS011;31358;46.008;11.144;2023-06-05T08:00:25;11.40;;;8.50;;
45642;SDS011;31358;46.008;11.144;2023-06-05T08:02:52;11.90;;;8.50;;
45642;SDS011;31358;46.008;11.144;2023-06-05T08:05:18;12.88;;;8.98;;
45642;SDS011;31358;46.008;11.144;2023-06-05T08:07:44;16.50;;;9.30;;
45642;SDS011;31358;46.008;11.144;2023-06-05T08:10:11;15.30;;;9.27;;
45642;SDS011;31358;46.008;11.144;2023-06-05T08:12:37;15.20;;;9.93;;
45642;SDS011;31358;46.008;11.144;2023-06-05T08:15:03;16.73;;;10.38;;
45642;SDS011;31358;46.008;11.144;2023-06-05T08:17:29;18.67;;;9.02;;
45642;SDS011;31358;46.008;11.144;2023-06-05T08:19:55;9.88;;;7.65;;
45642;SDS011;31358;46.008;11.144;2023-06-05T08:22:20;12.18;;;7.38;;
45642;SDS011;31358;46.008;11.144;2023-06-05T08:24:47;12.32;;;9.00;;
45642;SDS011;31358;46.008;11.144;2023-06-05T08:27:15;14.63;;;8.32;;
45642;SDS011;31358;46.008;11.144;2023-06-05T08:29:41;9.73;;;7.43;;
45642;SDS011;31358;46.008;11.144;2023-06-05T08:32:07;12.20;;;7.93;;
45642;SDS011;31358;46.008;11.144;2023-06-05T08:34:32;11.70;;;8.02;;
45642;SDS011;31358;46.008;11.144;2023-06-05T08:36:58;12.25;;;8.90;;
45642;SDS011;31358;46.008;11.144;2023-06-05T08:39:24;12.13;;;9.35;;
45642;SDS011;31358;46.008;11.144;2023-06-05T08:41:54;11.02;;;8.30;;
45642;SDS011;31358;46.008;11.144;2023-06-05T08:44:25;12.05;;;7.43;;
45642;SDS011;31358;46.008;11.144;2023-06-05T08:47:00;11.52;;;7.63;;
45642;SDS011;31358;46.008;11.144;2023-06-05T08:49:28;13.30;;;8.32;;
45642;SDS011;31358;46.008;11.144;2023-06-05T08:51:56;12.02;;;7.90;;
45642;SDS011;31358;46.008;11.144;2023-06-05T08:54:27;11.57;;;8.43;;
45642;SDS011;31358;46.008;11.144;2023-06-05T08:57:01;10.63;;;7.80;;
45642;SDS011;31358;46.008;11.144;2023-06-05T08:59:28;11.25;;;8.80;;
45642;SDS011;31358;46.008;11.144;2023-06-05T09:01:54;11.75;;;8.10;;
45642;SDS011;31358;46.008;11.144;2023-06-05T09:04:20;12.85;;;8.65;;
45642;SDS011;31358;46.008;11.144;2023-06-05T09:06:46;11.50;;;8.05;;
45642;SDS011;31358;46.008;11.144;2023-06-05T09:09:13;12.77;;;7.88;;
45642;SDS011;31358;46.008;11.144;2023-06-05T09:11:40;11.05;;;7.72;;
45642;SDS011;31358;46.008;11.144;2023-06-05T09:14:05;10.68;;;8.18;;
45642;SDS011;31358;46.008;11.144;2023-06-05T09:16:41;12.05;;;6.63;;
45642;SDS011;31358;46.008;11.144;2023-06-05T09:19:09;14.30;;;7.47;;
45642;SDS011;31358;46.008;11.144;2023-06-05T09:21:36;10.73;;;6.85;;
45642;SDS011;31358;46.008;11.144;2023-06-05T09:26:46;10.07;;;7.00;;
45642;SDS011;31358;46.008;11.144;2023-06-05T09:29:28;9.10;;;5.78;;
45642;SDS011;31358;46.008;11.144;2023-06-05T09:32:00;7.90;;;5.03;;
45642;SDS011;31358;46.008;11.144;2023-06-05T09:34:31;7.60;;;5.38;;
45642;SDS011;31358;46.008;11.144;2023-06-05T09:36:58;8.63;;;5.25;;
45642;SDS011;31358;46.008;11.144;2023-06-05T09:39:25;12.00;;;5.65;;
45642;SDS011;31358;46.008;11.144;2023-06-05T09:41:53;8.75;;;5.70;;
45642;SDS011;31358;46.008;11.144;2023-06-05T09:44:20;10.27;;;5.78;;
45642;SDS011;31358;46.008;11.144;2023-06-05T09:46:49;7.72;;;5.88;;
45642;SDS011;31358;46.008;11.144;2023-06-05T09:49:25;9.63;;;6.35;;
45642;SDS011;31358;46.008;11.144;2023-06-05T09:51:51;11.23;;;5.95;;
45642;SDS011;31358;46.008;11.144;2023-06-05T09:54:17;8.30;;;5.38;;
45642;SDS011;31358;46.008;11.144;2023-06-05T09:56:46;12.32;;;5.80;;
45642;SDS011;31358;46.008;11.144;2023-06-05T09:59:19;8.93;;;5.63;;
45642;SDS011;31358;46.008;11.144;2023-06-05T10:01:50;9.38;;;5.88;;
45642;SDS011;31358;46.008;11.144;2023-06-05T10:04:21;9.30;;;5.22;;
45642;SDS011;31358;46.008;11.144;2023-06-05T10:06:48;9.18;;;5.70;;
45642;SDS011;31358;46.008;11.144;2023-06-05T10:09:16;7.88;;;4.78;;
45642;SDS011;31358;46.008;11.144;2023-06-05T10:11:43;6.07;;;4.22;;
45642;SDS011;31358;46.008;11.144;2023-06-05T10:14:12;8.20;;;4.88;;
45642;SDS011;31358;46.008;11.144;2023-06-05T10:16:38;8.45;;;5.38;;
45642;SDS011;31358;46.008;11.144;2023-06-05T10:19:05;8.57;;;5.30;;
45642;SDS011;31358;46.008;11.144;2023-06-05T10:21:32;8.50;;;5.50;;
45642;SDS011;31358;46.008;11.144;2023-06-05T10:23:59;7.40;;;5.28;;
45642;SDS011;31358;46.008;11.144;2023-06-05T10:32:03;7.70;;;5.55;;
45642;SDS011;31358;46.008;11.144;2023-06-05T10:34:40;10.00;;;5.68;;
45642;SDS011;31358;46.008;11.144;2023-06-05T10:40:24;8.18;;;5.38;;
45642;SDS011;31358;46.008;11.144;2023-06-05T10:42:50;9.15;;;5.22;;
45642;SDS011;31358;46.008;11.144;2023-06-05T10:45:31;7.95;;;4.95;;
45642;SDS011;31358;46.008;11.144;2023-06-05T10:48:00;7.00;;;4.93;;
45642;SDS011;31358;46.008;11.144;2023-06-05T10:50:27;6.15;;;4.25;;
45642;SDS011;31358;46.008;11.144;2023-06-05T10:52:55;6.88;;;4.55;;
45642;SDS011;31358;46.008;11.144;2023-06-05T10:55:23;9.38;;;4.25;;
45642;SDS011;31358;46.008;11.144;2023-06-05T11:00:36;5.50;;;3.35;;
45642;SDS011;31358;46.008;11.144;2023-06-05T11:03:03;6.07;;;3.40;;
45642;SDS011;31358;46.008;11.144;2023-06-05T11:05:31;5.75;;;3.45;;
45642;SDS011;31358;46.008;11.144;2023-06-05T11:08:13;7.00;;;3.83;;
45642;SDS011;31358;46.008;11.144;2023-06-05T11:13:54;5.10;;;3.25;;
45642;SDS011;31358;46.008;11.144;2023-06-05T11:16:30;5.00;;;3.47;;
45642;SDS011;31358;46.008;11.144;2023-06-05T11:24:36;5.07;;;2.92;;
45642;SDS011;31358;46.008;11.144;2023-06-05T11:27:03;5.55;;;3.60;;
45642;SDS011;31358;46.008;11.144;2023-06-05T11:29:30;8.60;;;4.57;;
45642;SDS011;31358;46.008;11.144;2023-06-05T11:31:57;6.55;;;4.45;;
45642;SDS011;31358;46.008;11.144;2023-06-05T11:34:23;6.45;;;4.53;;
45642;SDS011;31358;46.008;11.144;2023-06-05T11:36:50;5.65;;;3.95;;
45642;SDS011;31358;46.008;11.144;2023-06-05T11:39:16;6.93;;;4.63;;
45642;SDS011;31358;46.008;11.144;2023-06-05T11:41:45;5.68;;;3.90;;
45642;SDS011;31358;46.008;11.144;2023-06-05T11:44:12;7.90;;;5.07;;
45642;SDS011;31358;46.008;11.144;2023-06-05T11:46:41;6.05;;;3.67;;
45642;SDS011;31358;46.008;11.144;2023-06-05T11:49:21;4.65;;;3.08;;
45642;SDS011;31358;46.008;11.144;2023-06-05T11:51:49;6.57;;;3.60;;
45642;SDS011;31358;46.008;11.144;2023-06-05T11:57:00;6.38;;;4.85;;
45642;SDS011;31358;46.008;11.144;2023-06-05T11:59:34;6.65;;;4.30;;
45642;SDS011;31358;46.008;11.144;2023-06-05T12:02:00;7.28;;;4.72;;
45642;SDS011;31358;46.008;11.144;2023-06-05T12:04:28;6.78;;;4.60;;
45642;SDS011;31358;46.008;11.144;2023-06-05T12:06:55;7.53;;;4.10;;
45642;SDS011;31358;46.008;11.144;2023-06-05T12:09:21;7.05;;;5.13;;
45642;SDS011;31358;46.008;11.144;2023-06-05T12:11:47;6.93;;;5.13;;
45642;SDS011;31358;46.008;11.144;2023-06-05T12:14:14;8.00;;;4.95;;
45642;SDS011;31358;46.008;11.144;2023-06-05T12:16:56;6.95;;;4.30;;
45642;SDS011;31358;46.008;11.144;2023-06-05T12:19:22;6.93;;;4.88;;
45642;SDS011;31358;46.008;11.144;2023-06-05T12:21:48;5.93;;;4.35;;
45642;SDS011;31358;46.008;11.144;2023-06-05T12:24:26;6.47;;;4.28;;
45642;SDS011;31358;46.008;11.144;2023-06-05T12:26:55;7.45;;;5.20;;
45642;SDS011;31358;46.008;11.144;2023-06-05T12:29:30;6.93;;;5.03;;
45642;SDS011;31358;46.008;11.144;2023-06-05T12:34:45;9.00;;;4.72;;
45642;SDS011;31358;46.008;11.144;2023-06-05T12:37:25;7.47;;;5.43;;
45642;SDS011;31358;46.008;11.144;2023-06-05T12:39:57;10.73;;;5.53;;
45642;SDS011;31358;46.008;11.144;2023-06-05T12:42:23;6.68;;;5.03;;
45642;SDS011;31358;46.008;11.144;2023-06-05T12:44:49;8.50;;;5.63;;
45642;SDS011;31358;46.008;11.144;2023-06-05T12:47:15;7.00;;;5.40;;
45642;SDS011;31358;46.008;11.144;2023-06-05T12:49:41;7.00;;;4.75;;
45642;SDS011;31358;46.008;11.144;2023-06-05T12:52:07;7.20;;;3.90;;
45642;SDS011;31358;46.008;11.144;2023-06-05T12:54:36;5.63;;;4.18;;
45642;SDS011;31358;46.008;11.144;2023-06-05T12:57:02;5.25;;;3.92;;
45642;SDS011;31358;46.008;11.144;2023-06-05T12:59:30;5.03;;;3.28;;
45642;SDS011;31358;46.008;11.144;2023-06-05T13:01:56;6.30;;;3.22;;
45642;SDS011;31358;46.008;11.144;2023-06-05T13:04:22;6.63;;;4.15;;
45642;SDS011;31358;46.008;11.144;2023-06-05T13:06:47;5.80;;;3.83;;
45642;SDS011;31358;46.008;11.144;2023-06-05T13:09:13;5.95;;;3.22;;
45642;SDS011;31358;46.008;11.144;2023-06-05T13:11:38;6.53;;;3.35;;
45642;SDS011;31358;46.008;11.144;2023-06-05T13:14:04;4.80;;;3.30;;
45642;SDS011;31358;46.008;11.144;2023-06-05T13:16:30;4.95;;;3.75;;
45642;SDS011;31358;46.008;11.144;2023-06-05T13:18:56;6.90;;;4.45;;
45642;SDS011;31358;46.008;11.144;2023-06-05T13:21:22;5.10;;;3.22;;
45642;SDS011;31358;46.008;11.144;2023-06-05T13:23:47;4.75;;;3.05;;
45642;SDS011;31358;46.008;11.144;2023-06-05T13:26:13;5.28;;;3.22;;
45642;SDS011;31358;46.008;11.144;2023-06-05T13:28:39;4.45;;;2.95;;
45642;SDS011;31358;46.008;11.144;2023-06-05T13:31:05;5.13;;;3.30;;
45642;SDS011;31358;46.008;11.144;2023-06-05T13:33:31;5.47;;;3.88;;
45642;SDS011;31358;46.008;11.144;2023-06-05T13:35:58;5.18;;;3.15;;
45642;SDS011;31358;46.008;11.144;2023-06-05T13:38:24;5.50;;;3.42;;
45642;SDS011;31358;46.008;11.144;2023-06-05T13:40:50;6.55;;;3.72;;
45642;SDS011;31358;46.008;11.144;2023-06-05T13:43:17;6.25;;;3.10;;
45642;SDS011;31358;46.008;11.144;2023-06-05T13:45:43;5.40;;;3.75;;
45642;SDS011;31358;46.008;11.144;2023-06-05T13:48:10;5.97;;;3.65;;
45642;SDS011;31358;46.008;11.144;2023-06-05T13:50:35;5.68;;;4.05;;
45642;SDS011;31358;46.008;11.144;2023-06-05T13:53:01;6.47;;;3.83;;
45642;SDS011;31358;46.008;11.144;2023-06-05T13:55:27;5.95;;;4.38;;
45642;SDS011;31358;46.008;11.144;2023-06-05T13:57:52;6.13;;;3.67;;
45642;SDS011;31358;46.008;11.144;2023-06-05T14:00:18;6.40;;;4.30;;
45642;SDS011;31358;46.008;11.144;2023-06-05T14:02:44;5.45;;;3.72;;
45642;SDS011;31358;46.008;11.144;2023-06-05T14:05:11;4.47;;;3.20;;
45642;SDS011;31358;46.008;11.144;2023-06-05T14:07:37;5.82;;;3.90;;
45642;SDS011;31358;46.008;11.144;2023-06-05T14:10:03;5.20;;;3.85;;
45642;SDS011;31358;46.008;11.144;2023-06-05T14:12:29;5.68;;;4.15;;
45642;SDS011;31358;46.008;11.144;2023-06-05T14:14:54;5.72;;;3.58;;
45642;SDS011;31358;46.008;11.144;2023-06-05T14:17:20;5.72;;;3.50;;
45642;SDS011;31358;46.008;11.144;2023-06-05T14:19:46;5.63;;;3.85;;
45642;SDS011;31358;46.008;11.144;2023-06-05T14:22:11;6.28;;;4.40;;
45642;SDS011;31358;46.008;11.144;2023-06-05T14:24:37;6.90;;;4.10;;
45642;SDS011;31358;46.008;11.144;2023-06-05T14:27:04;6.22;;;4.40;;
45642;SDS011;31358;46.008;11.144;2023-06-05T14:29:30;5.82;;;3.17;;
45642;SDS011;31358;46.008;11.144;2023-06-05T14:31:55;5.25;;;3.78;;
45642;SDS011;31358;46.008;11.144;2023-06-05T14:34:21;6.35;;;3.92;;
45642;SDS011;31358;46.008;11.144;2023-06-05T14:36:47;5.35;;;2.90;;
45642;SDS011;31358;46.008;11.144;2023-06-05T14:39:16;4.30;;;3.20;;
45642;SDS011;31358;46.008;11.144;2023-06-05T14:41:43;6.47;;;3.20;;
45642;SDS011;31358;46.008;11.144;2023-06-05T14:44:09;6.72;;;3.45;;
45642;SDS011;31358;46.008;11.144;2023-06-05T14:46:35;6.63;;;3.70;;
45642;SDS011;31358;46.008;11.144;2023-06-05T14:49:00;6.13;;;3.67;;
45642;SDS011;31358;46.008;11.144;2023-06-05T14:51:26;5.07;;;3.30;;
45642;SDS011;31358;46.008;11.144;2023-06-05T14:53:51;5.25;;;3.38;;
45642;SDS011;31358;46.008;11.144;2023-06-05T14:56:17;7.57;;;2.90;;
45642;SDS011;31358;46.008;11.144;2023-06-05T14:58:42;5.20;;;3.53;;
45642;SDS011;31358;46.008;11.144;2023-06-05T15:01:08;7.60;;;3.72;;
45642;SDS011;31358;46.008;11.144;2023-06-05T15:03:34;7.82;;;4.43;;
45642;SDS011;31358;46.008;11.144;2023-06-05T15:06:00;8.13;;;4.70;;
45642;SDS011;31358;46.008;11.144;2023-06-05T15:08:25;7.20;;;5.10;;
45642;SDS011;31358;46.008;11.144;2023-06-05T15:10:51;11.52;;;6.03;;